sensor_id;sensor_type;location;lat;lon;timestamp;P1;durP1;ratioP1;P2;durP2;ratioP2
75898;SDS011;64576;50.460;4.866;2023-05-29T00:00:52;12.35;;;5.25;;
75898;SDS011;64576;50.460;4.866;2023-05-29T00:03:18;10.75;;;4.47;;
75898;SDS011;64576;50.460;4.866;2023-05-29T00:05:44;10.65;;;3.95;;
75898;SDS011;64576;50.460;4.866;2023-05-29T00:08:09;15.77;;;4.55;;
75898;SDS011;64576;50.460;4.866;2023-05-29T00:10:35;10.40;;;4.53;;
75898;SDS011;64576;50.460;4.866;2023-05-29T00:13:02;11.80;;;3.92;;
75898;SDS011;64576;50.460;4.866;2023-05-29T00:15:27;8.75;;;4.40;;
75898;SDS011;64576;50.460;4.866;2023-05-29T00:17:53;9.70;;;4.32;;
75898;SDS011;64576;50.460;4.866;2023-05-29T00:20:18;11.55;;;4.75;;
75898;SDS011;64576;50.460;4.866;2023-05-29T00:22:44;11.63;;;4.05;;
75898;SDS011;64576;50.460;4.866;2023-05-29T00:25:09;11.48;;;4.55;;
75898;SDS011;64576;50.460;4.866;2023-05-29T00:27:35;12.27;;;4.93;;
75898;SDS011;64576;50.460;4.866;2023-05-29T00:30:01;13.30;;;4.93;;
75898;SDS011;64576;50.460;4.866;2023-05-29T00:32:28;11.25;;;4.45;;
75898;SDS011;64576;50.460;4.866;2023-05-29T00:34:53;8.68;;;4.63;;
75898;SDS011;64576;50.460;4.866;2023-05-29T00:37:20;12.85;;;4.93;;
75898;SDS011;64576;50.460;4.866;2023-05-29T00:39:46;14.75;;;5.10;;
75898;SDS011;64576;50.460;4.866;2023-05-29T00:42:12;12.30;;;5.57;;
75898;SDS011;64576;50.460;4.866;2023-05-29T00:44:38;14.27;;;5.57;;
75898;SDS011;64576;50.460;4.866;2023-05-29T00:47:03;16.08;;;5.30;;
75898;SDS011;64576;50.460;4.866;2023-05-29T00:49:29;14.27;;;5.15;;
75898;SDS011;64576;50.460;4.866;2023-05-29T00:51:54;17.55;;;5.13;;
75898;SDS011;64576;50.460;4.866;2023-05-29T00:54:26;13.63;;;5.00;;
75898;SDS011;64576;50.460;4.866;2023-05-29T00:56:54;10.93;;;4.90;;
75898;SDS011;64576;50.460;4.866;2023-05-29T00:59:22;11.85;;;5.03;;
75898;SDS011;64576;50.460;4.866;2023-05-29T01:01:51;19.80;;;5.95;;
75898;SDS011;64576;50.460;4.866;2023-05-29T01:04:17;15.75;;;5.40;;
75898;SDS011;64576;50.460;4.866;2023-05-29T01:06:42;14.98;;;6.25;;
75898;SDS011;64576;50.460;4.866;2023-05-29T01:09:08;16.75;;;5.25;;
75898;SDS011;64576;50.460;4.866;2023-05-29T01:14:09;11.95;;;5.88;;
75898;SDS011;64576;50.460;4.866;2023-05-29T01:22:25;15.50;;;6.32;;
75898;SDS011;64576;50.460;4.866;2023-05-29T01:27:28;15.93;;;6.50;;
75898;SDS011;64576;50.460;4.866;2023-05-29T01:29:56;14.43;;;5.15;;
75898;SDS011;64576;50.460;4.866;2023-05-29T01:32:23;15.57;;;7.32;;
75898;SDS011;64576;50.460;4.866;2023-05-29T01:34:50;17.45;;;6.47;;
75898;SDS011;64576;50.460;4.866;2023-05-29T01:37:16;17.77;;;6.60;;
75898;SDS011;64576;50.460;4.866;2023-05-29T01:39:41;14.85;;;6.43;;
75898;SDS011;64576;50.460;4.866;2023-05-29T01:42:07;21.08;;;5.88;;
75898;SDS011;64576;50.460;4.866;2023-05-29T01:44:33;19.25;;;7.82;;
75898;SDS011;64576;50.460;4.866;2023-05-29T01:46:59;15.98;;;6.78;;
75898;SDS011;64576;50.460;4.866;2023-05-29T01:49:25;18.27;;;7.47;;
75898;SDS011;64576;50.460;4.866;2023-05-29T01:51:52;17.65;;;6.88;;
75898;SDS011;64576;50.460;4.866;2023-05-29T01:54:18;12.60;;;6.43;;
75898;SDS011;64576;50.460;4.866;2023-05-29T01:56:44;16.27;;;7.00;;
75898;SDS011;64576;50.460;4.866;2023-05-29T01:59:10;17.55;;;7.97;;
75898;SDS011;64576;50.460;4.866;2023-05-29T02:01:38;15.05;;;6.38;;
75898;SDS011;64576;50.460;4.866;2023-05-29T02:04:04;20.85;;;8.77;;
75898;SDS011;64576;50.460;4.866;2023-05-29T02:06:30;15.63;;;7.47;;
75898;SDS011;64576;50.460;4.866;2023-05-29T02:08:56;22.23;;;10.05;;
75898;SDS011;64576;50.460;4.866;2023-05-29T02:11:21;16.02;;;7.05;;
75898;SDS011;64576;50.460;4.866;2023-05-29T02:13:46;15.73;;;7.40;;
75898;SDS011;64576;50.460;4.866;2023-05-29T02:16:12;17.20;;;7.90;;
75898;SDS011;64576;50.460;4.866;2023-05-29T02:18:37;15.57;;;6.65;;
75898;SDS011;64576;50.460;4.866;2023-05-29T02:21:02;21.02;;;7.47;;
75898;SDS011;64576;50.460;4.866;2023-05-29T02:23:28;17.83;;;8.07;;
75898;SDS011;64576;50.460;4.866;2023-05-29T02:25:54;23.40;;;7.43;;
75898;SDS011;64576;50.460;4.866;2023-05-29T02:28:19;21.25;;;8.07;;
75898;SDS011;64576;50.460;4.866;2023-05-29T02:30:45;18.05;;;8.40;;
75898;SDS011;64576;50.460;4.866;2023-05-29T02:33:10;19.40;;;7.93;;
75898;SDS011;64576;50.460;4.866;2023-05-29T02:35:35;19.40;;;6.22;;
75898;SDS011;64576;50.460;4.866;2023-05-29T02:38:01;24.45;;;9.50;;
75898;SDS011;64576;50.460;4.866;2023-05-29T02:40:26;20.10;;;7.47;;
75898;SDS011;64576;50.460;4.866;2023-05-29T02:42:51;28.70;;;8.07;;
75898;SDS011;64576;50.460;4.866;2023-05-29T02:45:17;15.30;;;7.38;;
75898;SDS011;64576;50.460;4.866;2023-05-29T02:47:42;19.60;;;7.95;;
75898;SDS011;64576;50.460;4.866;2023-05-29T02:50:08;17.42;;;8.05;;
75898;SDS011;64576;50.460;4.866;2023-05-29T02:52:34;21.85;;;7.90;;
75898;SDS011;64576;50.460;4.866;2023-05-29T02:55:01;19.92;;;8.95;;
75898;SDS011;64576;50.460;4.866;2023-05-29T02:57:28;24.67;;;9.77;;
75898;SDS011;64576;50.460;4.866;2023-05-29T02:59:53;25.40;;;9.75;;
75898;SDS011;64576;50.460;4.866;2023-05-29T03:02:20;21.25;;;8.73;;
75898;SDS011;64576;50.460;4.866;2023-05-29T03:04:45;22.23;;;9.05;;
75898;SDS011;64576;50.460;4.866;2023-05-29T03:07:10;19.38;;;8.18;;
75898;SDS011;64576;50.460;4.866;2023-05-29T03:09:37;31.13;;;9.18;;
75898;SDS011;64576;50.460;4.866;2023-05-29T03:12:03;25.63;;;9.82;;
75898;SDS011;64576;50.460;4.866;2023-05-29T03:14:29;22.02;;;9.00;;
75898;SDS011;64576;50.460;4.866;2023-05-29T03:16:54;28.52;;;10.13;;
75898;SDS011;64576;50.460;4.866;2023-05-29T03:19:20;23.15;;;10.63;;
75898;SDS011;64576;50.460;4.866;2023-05-29T03:21:45;25.42;;;8.65;;
75898;SDS011;64576;50.460;4.866;2023-05-29T03:24:11;27.65;;;10.02;;
75898;SDS011;64576;50.460;4.866;2023-05-29T03:26:38;26.60;;;12.10;;
75898;SDS011;64576;50.460;4.866;2023-05-29T03:29:03;28.40;;;13.00;;
75898;SDS011;64576;50.460;4.866;2023-05-29T03:31:30;28.42;;;14.25;;
75898;SDS011;64576;50.460;4.866;2023-05-29T03:33:59;38.85;;;13.63;;
75898;SDS011;64576;50.460;4.866;2023-05-29T03:36:25;35.50;;;13.82;;
75898;SDS011;64576;50.460;4.866;2023-05-29T03:38:51;28.52;;;11.18;;
75898;SDS011;64576;50.460;4.866;2023-05-29T03:41:17;34.00;;;13.75;;
75898;SDS011;64576;50.460;4.866;2023-05-29T03:43:42;34.42;;;14.38;;
75898;SDS011;64576;50.460;4.866;2023-05-29T03:46:07;41.13;;;13.38;;
75898;SDS011;64576;50.460;4.866;2023-05-29T03:48:33;35.13;;;13.57;;
75898;SDS011;64576;50.460;4.866;2023-05-29T03:50:58;38.47;;;16.30;;
75898;SDS011;64576;50.460;4.866;2023-05-29T03:53:24;44.75;;;16.52;;
75898;SDS011;64576;50.460;4.866;2023-05-29T03:55:49;43.05;;;16.92;;
75898;SDS011;64576;50.460;4.866;2023-05-29T03:58:15;38.00;;;17.75;;
75898;SDS011;64576;50.460;4.866;2023-05-29T04:00:40;40.63;;;16.80;;
75898;SDS011;64576;50.460;4.866;2023-05-29T04:03:06;38.30;;;14.27;;
75898;SDS011;64576;50.460;4.866;2023-05-29T04:05:31;44.25;;;17.70;;
75898;SDS011;64576;50.460;4.866;2023-05-29T04:07:56;39.08;;;17.17;;
75898;SDS011;64576;50.460;4.866;2023-05-29T04:10:22;42.67;;;16.55;;
75898;SDS011;64576;50.460;4.866;2023-05-29T04:12:48;41.08;;;17.75;;
75898;SDS011;64576;50.460;4.866;2023-05-29T04:15:14;39.22;;;17.05;;
75898;SDS011;64576;50.460;4.866;2023-05-29T04:17:39;51.47;;;17.67;;
75898;SDS011;64576;50.460;4.866;2023-05-29T04:20:05;48.03;;;19.30;;
75898;SDS011;64576;50.460;4.866;2023-05-29T04:22:36;43.15;;;18.95;;
75898;SDS011;64576;50.460;4.866;2023-05-29T04:25:02;39.20;;;16.65;;
75898;SDS011;64576;50.460;4.866;2023-05-29T04:27:31;40.00;;;17.88;;
75898;SDS011;64576;50.460;4.866;2023-05-29T04:30:06;42.33;;;17.40;;
75898;SDS011;64576;50.460;4.866;2023-05-29T04:32:32;43.03;;;17.70;;
75898;SDS011;64576;50.460;4.866;2023-05-29T04:35:01;49.05;;;20.10;;
75898;SDS011;64576;50.460;4.866;2023-05-29T04:37:30;39.10;;;19.05;;
75898;SDS011;64576;50.460;4.866;2023-05-29T04:40:02;35.75;;;16.67;;
75898;SDS011;64576;50.460;4.866;2023-05-29T04:42:29;45.58;;;21.48;;
75898;SDS011;64576;50.460;4.866;2023-05-29T04:44:58;38.50;;;17.70;;
75898;SDS011;64576;50.460;4.866;2023-05-29T04:47:24;40.60;;;16.80;;
75898;SDS011;64576;50.460;4.866;2023-05-29T04:49:49;43.60;;;17.27;;
75898;SDS011;64576;50.460;4.866;2023-05-29T04:52:15;40.95;;;16.33;;
75898;SDS011;64576;50.460;4.866;2023-05-29T04:54:41;31.75;;;15.73;;
75898;SDS011;64576;50.460;4.866;2023-05-29T04:57:06;35.75;;;14.45;;
75898;SDS011;64576;50.460;4.866;2023-05-29T04:59:32;31.52;;;14.60;;
75898;SDS011;64576;50.460;4.866;2023-05-29T05:01:57;32.38;;;14.65;;
75898;SDS011;64576;50.460;4.866;2023-05-29T05:04:22;37.22;;;16.05;;
75898;SDS011;64576;50.460;4.866;2023-05-29T05:06:48;42.15;;;17.40;;
75898;SDS011;64576;50.460;4.866;2023-05-29T05:09:13;28.98;;;15.45;;
75898;SDS011;64576;50.460;4.866;2023-05-29T05:11:38;32.20;;;12.73;;
75898;SDS011;64576;50.460;4.866;2023-05-29T05:14:04;37.53;;;14.73;;
75898;SDS011;64576;50.460;4.866;2023-05-29T05:16:29;33.95;;;13.95;;
75898;SDS011;64576;50.460;4.866;2023-05-29T05:18:55;28.92;;;13.93;;
75898;SDS011;64576;50.460;4.866;2023-05-29T05:21:20;28.42;;;12.27;;
75898;SDS011;64576;50.460;4.866;2023-05-29T05:23:45;26.85;;;12.20;;
75898;SDS011;64576;50.460;4.866;2023-05-29T05:26:11;35.88;;;12.50;;
75898;SDS011;64576;50.460;4.866;2023-05-29T05:28:36;24.65;;;10.70;;
75898;SDS011;64576;50.460;4.866;2023-05-29T05:31:01;25.60;;;10.57;;
75898;SDS011;64576;50.460;4.866;2023-05-29T05:33:27;25.27;;;10.25;;
75898;SDS011;64576;50.460;4.866;2023-05-29T05:35:52;29.95;;;9.45;;
75898;SDS011;64576;50.460;4.866;2023-05-29T05:38:18;27.60;;;9.25;;
75898;SDS011;64576;50.460;4.866;2023-05-29T05:40:43;20.38;;;8.77;;
75898;SDS011;64576;50.460;4.866;2023-05-29T05:43:10;23.08;;;8.60;;
75898;SDS011;64576;50.460;4.866;2023-05-29T05:45:35;17.85;;;9.00;;
75898;SDS011;64576;50.460;4.866;2023-05-29T05:48:02;22.65;;;9.77;;
75898;SDS011;64576;50.460;4.866;2023-05-29T05:50:28;16.05;;;6.25;;
75898;SDS011;64576;50.460;4.866;2023-05-29T05:52:54;21.10;;;7.25;;
75898;SDS011;64576;50.460;4.866;2023-05-29T05:55:19;20.48;;;7.70;;
75898;SDS011;64576;50.460;4.866;2023-05-29T05:57:45;17.95;;;6.35;;
75898;SDS011;64576;50.460;4.866;2023-05-29T06:00:10;17.15;;;6.85;;
75898;SDS011;64576;50.460;4.866;2023-05-29T06:02:37;20.17;;;6.70;;
75898;SDS011;64576;50.460;4.866;2023-05-29T06:05:02;14.52;;;6.07;;
75898;SDS011;64576;50.460;4.866;2023-05-29T06:07:29;11.40;;;5.18;;
75898;SDS011;64576;50.460;4.866;2023-05-29T06:09:54;25.33;;;6.53;;
75898;SDS011;64576;50.460;4.866;2023-05-29T06:12:19;18.52;;;6.25;;
75898;SDS011;64576;50.460;4.866;2023-05-29T06:14:45;13.68;;;5.15;;
75898;SDS011;64576;50.460;4.866;2023-05-29T06:17:10;19.25;;;6.47;;
75898;SDS011;64576;50.460;4.866;2023-05-29T06:19:36;20.25;;;5.30;;
75898;SDS011;64576;50.460;4.866;2023-05-29T06:22:01;12.85;;;5.03;;
75898;SDS011;64576;50.460;4.866;2023-05-29T06:24:26;14.95;;;5.10;;
75898;SDS011;64576;50.460;4.866;2023-05-29T06:26:52;11.90;;;4.07;;
75898;SDS011;64576;50.460;4.866;2023-05-29T06:29:17;16.73;;;6.07;;
75898;SDS011;64576;50.460;4.866;2023-05-29T06:31:42;17.83;;;5.63;;
75898;SDS011;64576;50.460;4.866;2023-05-29T06:34:08;14.38;;;4.60;;
75898;SDS011;64576;50.460;4.866;2023-05-29T06:36:33;20.15;;;4.63;;
75898;SDS011;64576;50.460;4.866;2023-05-29T06:38:59;25.85;;;5.45;;
75898;SDS011;64576;50.460;4.866;2023-05-29T06:41:25;16.70;;;4.63;;
75898;SDS011;64576;50.460;4.866;2023-05-29T06:43:50;17.67;;;5.55;;
75898;SDS011;64576;50.460;4.866;2023-05-29T06:46:16;16.58;;;5.32;;
75898;SDS011;64576;50.460;4.866;2023-05-29T06:48:42;16.23;;;4.63;;
75898;SDS011;64576;50.460;4.866;2023-05-29T06:51:07;17.85;;;5.22;;
75898;SDS011;64576;50.460;4.866;2023-05-29T06:53:40;22.52;;;4.80;;
75898;SDS011;64576;50.460;4.866;2023-05-29T06:56:06;17.73;;;4.93;;
75898;SDS011;64576;50.460;4.866;2023-05-29T06:58:32;11.70;;;4.15;;
75898;SDS011;64576;50.460;4.866;2023-05-29T07:01:04;15.63;;;5.38;;
75898;SDS011;64576;50.460;4.866;2023-05-29T07:03:30;18.10;;;5.67;;
75898;SDS011;64576;50.460;4.866;2023-05-29T07:05:55;22.90;;;5.72;;
75898;SDS011;64576;50.460;4.866;2023-05-29T07:08:21;19.02;;;5.85;;
75898;SDS011;64576;50.460;4.866;2023-05-29T07:10:46;12.90;;;4.68;;
75898;SDS011;64576;50.460;4.866;2023-05-29T07:13:14;16.50;;;5.70;;
75898;SDS011;64576;50.460;4.866;2023-05-29T07:15:41;15.20;;;4.85;;
75898;SDS011;64576;50.460;4.866;2023-05-29T07:18:06;12.15;;;4.65;;
75898;SDS011;64576;50.460;4.866;2023-05-29T07:20:31;16.95;;;4.68;;
75898;SDS011;64576;50.460;4.866;2023-05-29T07:22:57;19.13;;;5.68;;
75898;SDS011;64576;50.460;4.866;2023-05-29T07:25:22;14.93;;;4.90;;
75898;SDS011;64576;50.460;4.866;2023-05-29T07:27:48;13.10;;;4.40;;
75898;SDS011;64576;50.460;4.866;2023-05-29T07:30:13;15.40;;;4.68;;
75898;SDS011;64576;50.460;4.866;2023-05-29T07:32:39;15.43;;;4.93;;
75898;SDS011;64576;50.460;4.866;2023-05-29T07:35:04;18.70;;;5.47;;
75898;SDS011;64576;50.460;4.866;2023-05-29T07:37:30;18.20;;;5.80;;
75898;SDS011;64576;50.460;4.866;2023-05-29T07:39:56;13.68;;;4.65;;
75898;SDS011;64576;50.460;4.866;2023-05-29T07:42:22;14.02;;;4.57;;
75898;SDS011;64576;50.460;4.866;2023-05-29T07:44:47;21.27;;;5.22;;
75898;SDS011;64576;50.460;4.866;2023-05-29T07:47:13;10.38;;;4.65;;
75898;SDS011;64576;50.460;4.866;2023-05-29T07:49:38;17.45;;;4.45;;
75898;SDS011;64576;50.460;4.866;2023-05-29T07:52:04;20.83;;;4.40;;
75898;SDS011;64576;50.460;4.866;2023-05-29T07:54:30;12.13;;;4.53;;
75898;SDS011;64576;50.460;4.866;2023-05-29T07:56:58;16.42;;;5.40;;
75898;SDS011;64576;50.460;4.866;2023-05-29T07:59:25;12.25;;;4.45;;
75898;SDS011;64576;50.460;4.866;2023-05-29T08:01:51;16.55;;;5.13;;
75898;SDS011;64576;50.460;4.866;2023-05-29T08:04:17;13.52;;;4.95;;
75898;SDS011;64576;50.460;4.866;2023-05-29T08:06:42;15.88;;;5.35;;
75898;SDS011;64576;50.460;4.866;2023-05-29T08:09:08;14.23;;;4.68;;
75898;SDS011;64576;50.460;4.866;2023-05-29T08:11:35;18.40;;;4.40;;
75898;SDS011;64576;50.460;4.866;2023-05-29T08:14:01;15.32;;;4.50;;
75898;SDS011;64576;50.460;4.866;2023-05-29T08:16:27;15.88;;;5.10;;
75898;SDS011;64576;50.460;4.866;2023-05-29T08:18:52;11.80;;;4.25;;
75898;SDS011;64576;50.460;4.866;2023-05-29T08:21:18;15.68;;;4.30;;
75898;SDS011;64576;50.460;4.866;2023-05-29T08:23:44;14.95;;;5.38;;
75898;SDS011;64576;50.460;4.866;2023-05-29T08:26:10;15.80;;;5.28;;
75898;SDS011;64576;50.460;4.866;2023-05-29T08:28:35;12.23;;;5.35;;
75898;SDS011;64576;50.460;4.866;2023-05-29T08:31:00;17.05;;;6.32;;
75898;SDS011;64576;50.460;4.866;2023-05-29T08:33:26;12.75;;;4.47;;
75898;SDS011;64576;50.460;4.866;2023-05-29T08:35:51;12.70;;;4.10;;
75898;SDS011;64576;50.460;4.866;2023-05-29T08:38:17;23.23;;;5.50;;
75898;SDS011;64576;50.460;4.866;2023-05-29T08:40:42;11.20;;;4.88;;
75898;SDS011;64576;50.460;4.866;2023-05-29T08:43:41;14.85;;;5.90;;
75898;SDS011;64576;50.460;4.866;2023-05-29T08:46:00;12.85;;;4.50;;
75898;SDS011;64576;50.460;4.866;2023-05-29T08:48:27;13.10;;;4.60;;
75898;SDS011;64576;50.460;4.866;2023-05-29T08:50:54;15.15;;;5.18;;
75898;SDS011;64576;50.460;4.866;2023-05-29T08:53:21;15.73;;;5.07;;
75898;SDS011;64576;50.460;4.866;2023-05-29T08:55:47;16.02;;;4.68;;
75898;SDS011;64576;50.460;4.866;2023-05-29T08:58:16;10.23;;;3.78;;
75898;SDS011;64576;50.460;4.866;2023-05-29T09:00:41;15.35;;;4.78;;
75898;SDS011;64576;50.460;4.866;2023-05-29T09:03:07;15.27;;;5.43;;
75898;SDS011;64576;50.460;4.866;2023-05-29T09:05:33;17.30;;;6.07;;
75898;SDS011;64576;50.460;4.866;2023-05-29T09:07:58;14.32;;;5.15;;
75898;SDS011;64576;50.460;4.866;2023-05-29T09:10:24;15.75;;;4.75;;
75898;SDS011;64576;50.460;4.866;2023-05-29T09:12:52;12.43;;;4.60;;
75898;SDS011;64576;50.460;4.866;2023-05-29T09:15:22;22.50;;;5.65;;
75898;SDS011;64576;50.460;4.866;2023-05-29T09:20:18;12.75;;;5.18;;
75898;SDS011;64576;50.460;4.866;2023-05-29T09:25:24;16.17;;;4.75;;
75898;SDS011;64576;50.460;4.866;2023-05-29T09:27:58;14.40;;;4.50;;
75898;SDS011;64576;50.460;4.866;2023-05-29T09:30:35;15.32;;;4.68;;
75898;SDS011;64576;50.460;4.866;2023-05-29T09:38:03;14.73;;;5.00;;
75898;SDS011;64576;50.460;4.866;2023-05-29T09:40:30;15.63;;;4.70;;
75898;SDS011;64576;50.460;4.866;2023-05-29T09:43:03;14.32;;;4.80;;
75898;SDS011;64576;50.460;4.866;2023-05-29T09:45:32;14.52;;;4.22;;
75898;SDS011;64576;50.460;4.866;2023-05-29T09:47:58;13.63;;;4.43;;
75898;SDS011;64576;50.460;4.866;2023-05-29T09:50:26;15.38;;;4.93;;
75898;SDS011;64576;50.460;4.866;2023-05-29T09:52:53;14.30;;;5.05;;
75898;SDS011;64576;50.460;4.866;2023-05-29T09:55:20;15.20;;;5.00;;
75898;SDS011;64576;50.460;4.866;2023-05-29T09:57:46;17.00;;;5.45;;
75898;SDS011;64576;50.460;4.866;2023-05-29T10:00:14;13.05;;;4.03;;
75898;SDS011;64576;50.460;4.866;2023-05-29T10:02:42;16.15;;;5.78;;
75898;SDS011;64576;50.460;4.866;2023-05-29T10:05:07;18.10;;;4.45;;
75898;SDS011;64576;50.460;4.866;2023-05-29T10:07:35;15.60;;;4.88;;
75898;SDS011;64576;50.460;4.866;2023-05-29T10:10:04;9.63;;;4.10;;
75898;SDS011;64576;50.460;4.866;2023-05-29T10:12:55;15.27;;;5.90;;
75898;SDS011;64576;50.460;4.866;2023-05-29T10:15:21;16.38;;;5.50;;
75898;SDS011;64576;50.460;4.866;2023-05-29T10:17:57;14.43;;;4.55;;
75898;SDS011;64576;50.460;4.866;2023-05-29T10:20:23;15.65;;;4.93;;
75898;SDS011;64576;50.460;4.866;2023-05-29T10:22:51;17.52;;;5.05;;
75898;SDS011;64576;50.460;4.866;2023-05-29T10:25:20;14.95;;;5.28;;
75898;SDS011;64576;50.460;4.866;2023-05-29T10:27:48;13.52;;;4.28;;
75898;SDS011;64576;50.460;4.866;2023-05-29T10:35:46;13.90;;;4.00;;
75898;SDS011;64576;50.460;4.866;2023-05-29T10:38:23;11.80;;;4.97;;
75898;SDS011;64576;50.460;4.866;2023-05-29T10:40:49;11.68;;;3.70;;
75898;SDS011;64576;50.460;4.866;2023-05-29T10:43:31;15.85;;;5.47;;
75898;SDS011;64576;50.460;4.866;2023-05-29T10:50:53;15.38;;;4.30;;
75898;SDS011;64576;50.460;4.866;2023-05-29T10:53:23;13.30;;;4.57;;
75898;SDS011;64576;50.460;4.866;2023-05-29T10:55:50;13.18;;;3.80;;
75898;SDS011;64576;50.460;4.866;2023-05-29T10:58:20;16.85;;;4.68;;
75898;SDS011;64576;50.460;4.866;2023-05-29T11:00:48;11.52;;;4.32;;
75898;SDS011;64576;50.460;4.866;2023-05-29T11:03:14;10.85;;;3.92;;
75898;SDS011;64576;50.460;4.866;2023-05-29T11:05:57;13.18;;;5.63;;
75898;SDS011;64576;50.460;4.866;2023-05-29T11:08:46;12.70;;;3.92;;
75898;SDS011;64576;50.460;4.866;2023-05-29T11:11:28;12.85;;;4.38;;
75898;SDS011;64576;50.460;4.866;2023-05-29T11:14:02;11.80;;;4.22;;
75898;SDS011;64576;50.460;4.866;2023-05-29T11:18:56;10.02;;;3.63;;
75898;SDS011;64576;50.460;4.866;2023-05-29T11:24:00;16.30;;;5.85;;
75898;SDS011;64576;50.460;4.866;2023-05-29T11:26:31;13.88;;;4.85;;
75898;SDS011;64576;50.460;4.866;2023-05-29T11:29:01;12.32;;;4.60;;
75898;SDS011;64576;50.460;4.866;2023-05-29T11:31:30;13.70;;;4.70;;
75898;SDS011;64576;50.460;4.866;2023-05-29T11:33:59;14.75;;;4.60;;
75898;SDS011;64576;50.460;4.866;2023-05-29T11:36:26;14.90;;;4.15;;
75898;SDS011;64576;50.460;4.866;2023-05-29T11:38:53;14.82;;;5.10;;
75898;SDS011;64576;50.460;4.866;2023-05-29T11:41:18;13.00;;;4.30;;
75898;SDS011;64576;50.460;4.866;2023-05-29T11:43:44;13.77;;;3.80;;
75898;SDS011;64576;50.460;4.866;2023-05-29T11:46:23;12.10;;;3.80;;
75898;SDS011;64576;50.460;4.866;2023-05-29T11:48:51;13.35;;;4.18;;
75898;SDS011;64576;50.460;4.866;2023-05-29T11:51:17;15.13;;;4.45;;
75898;SDS011;64576;50.460;4.866;2023-05-29T11:53:42;14.32;;;4.35;;
75898;SDS011;64576;50.460;4.866;2023-05-29T11:56:11;16.50;;;4.85;;
75898;SDS011;64576;50.460;4.866;2023-05-29T11:58:40;10.63;;;4.00;;
75898;SDS011;64576;50.460;4.866;2023-05-29T12:01:06;14.45;;;6.10;;
75898;SDS011;64576;50.460;4.866;2023-05-29T12:03:39;12.85;;;4.10;;
75898;SDS011;64576;50.460;4.866;2023-05-29T12:06:05;10.27;;;4.28;;
75898;SDS011;64576;50.460;4.866;2023-05-29T12:08:31;14.75;;;4.57;;
75898;SDS011;64576;50.460;4.866;2023-05-29T12:10:56;13.88;;;3.78;;
75898;SDS011;64576;50.460;4.866;2023-05-29T12:13:22;14.15;;;4.20;;
75898;SDS011;64576;50.460;4.866;2023-05-29T12:15:49;11.85;;;3.63;;
75898;SDS011;64576;50.460;4.866;2023-05-29T12:18:18;12.63;;;4.45;;
75898;SDS011;64576;50.460;4.866;2023-05-29T12:20:43;11.65;;;4.57;;
75898;SDS011;64576;50.460;4.866;2023-05-29T12:23:09;13.05;;;4.63;;
75898;SDS011;64576;50.460;4.866;2023-05-29T12:25:34;13.95;;;4.65;;
75898;SDS011;64576;50.460;4.866;2023-05-29T12:28:03;17.15;;;3.92;;
75898;SDS011;64576;50.460;4.866;2023-05-29T12:30:29;11.23;;;4.25;;
75898;SDS011;64576;50.460;4.866;2023-05-29T12:32:54;8.50;;;3.75;;
75898;SDS011;64576;50.460;4.866;2023-05-29T12:35:21;11.75;;;4.32;;
75898;SDS011;64576;50.460;4.866;2023-05-29T12:37:57;9.35;;;3.65;;
75898;SDS011;64576;50.460;4.866;2023-05-29T12:40:28;12.43;;;4.68;;
75898;SDS011;64576;50.460;4.866;2023-05-29T12:42:55;10.70;;;4.32;;
75898;SDS011;64576;50.460;4.866;2023-05-29T12:45:25;13.55;;;3.85;;
75898;SDS011;64576;50.460;4.866;2023-05-29T12:48:02;14.98;;;4.75;;
75898;SDS011;64576;50.460;4.866;2023-05-29T12:50:29;9.32;;;4.63;;
75898;SDS011;64576;50.460;4.866;2023-05-29T12:53:00;12.23;;;5.35;;
75898;SDS011;64576;50.460;4.866;2023-05-29T12:55:33;13.00;;;5.22;;
75898;SDS011;64576;50.460;4.866;2023-05-29T12:58:06;13.93;;;3.85;;
75898;SDS011;64576;50.460;4.866;2023-05-29T13:00:33;10.32;;;4.50;;
75898;SDS011;64576;50.460;4.866;2023-05-29T13:02:59;10.60;;;3.60;;
75898;SDS011;64576;50.460;4.866;2023-05-29T13:05:26;15.02;;;4.45;;
75898;SDS011;64576;50.460;4.866;2023-05-29T13:07:52;12.98;;;4.35;;
75898;SDS011;64576;50.460;4.866;2023-05-29T13:10:18;14.77;;;5.18;;
75898;SDS011;64576;50.460;4.866;2023-05-29T13:12:44;10.38;;;3.47;;
75898;SDS011;64576;50.460;4.866;2023-05-29T13:15:11;14.40;;;4.38;;
75898;SDS011;64576;50.460;4.866;2023-05-29T13:17:37;10.30;;;4.03;;
75898;SDS011;64576;50.460;4.866;2023-05-29T13:20:07;13.18;;;5.20;;
75898;SDS011;64576;50.460;4.866;2023-05-29T13:22:34;8.82;;;3.50;;
75898;SDS011;64576;50.460;4.866;2023-05-29T13:25:00;12.32;;;4.13;;
75898;SDS011;64576;50.460;4.866;2023-05-29T13:27:25;10.75;;;3.22;;
75898;SDS011;64576;50.460;4.866;2023-05-29T13:29:51;13.30;;;5.78;;
75898;SDS011;64576;50.460;4.866;2023-05-29T13:32:17;10.90;;;3.67;;
75898;SDS011;64576;50.460;4.866;2023-05-29T13:34:42;16.55;;;4.32;;
75898;SDS011;64576;50.460;4.866;2023-05-29T13:37:08;12.55;;;4.93;;
75898;SDS011;64576;50.460;4.866;2023-05-29T13:39:33;9.85;;;3.50;;
75898;SDS011;64576;50.460;4.866;2023-05-29T13:41:58;11.27;;;3.97;;
75898;SDS011;64576;50.460;4.866;2023-05-29T13:44:24;13.55;;;3.75;;
75898;SDS011;64576;50.460;4.866;2023-05-29T13:46:49;12.50;;;3.97;;
75898;SDS011;64576;50.460;4.866;2023-05-29T13:49:15;8.98;;;3.67;;
75898;SDS011;64576;50.460;4.866;2023-05-29T13:51:41;10.55;;;3.60;;
75898;SDS011;64576;50.460;4.866;2023-05-29T13:54:06;10.05;;;4.15;;
75898;SDS011;64576;50.460;4.866;2023-05-29T13:56:32;8.35;;;3.28;;
75898;SDS011;64576;50.460;4.866;2023-05-29T13:58:57;11.00;;;3.38;;
75898;SDS011;64576;50.460;4.866;2023-05-29T14:01:28;9.13;;;3.50;;
75898;SDS011;64576;50.460;4.866;2023-05-29T14:03:54;10.73;;;3.80;;
75898;SDS011;64576;50.460;4.866;2023-05-29T14:06:19;8.80;;;3.53;;
75898;SDS011;64576;50.460;4.866;2023-05-29T14:08:44;12.65;;;4.25;;
75898;SDS011;64576;50.460;4.866;2023-05-29T14:11:10;11.68;;;3.90;;
75898;SDS011;64576;50.460;4.866;2023-05-29T14:13:35;8.45;;;3.28;;
75898;SDS011;64576;50.460;4.866;2023-05-29T14:16:00;10.00;;;4.65;;
75898;SDS011;64576;50.460;4.866;2023-05-29T14:18:26;11.10;;;3.63;;
75898;SDS011;64576;50.460;4.866;2023-05-29T14:20:51;11.00;;;3.65;;
75898;SDS011;64576;50.460;4.866;2023-05-29T14:23:17;9.07;;;3.20;;
75898;SDS011;64576;50.460;4.866;2023-05-29T14:25:42;7.35;;;3.30;;
75898;SDS011;64576;50.460;4.866;2023-05-29T14:28:08;11.05;;;4.40;;
75898;SDS011;64576;50.460;4.866;2023-05-29T14:30:34;11.95;;;3.28;;
75898;SDS011;64576;50.460;4.866;2023-05-29T14:33:00;9.23;;;3.22;;
75898;SDS011;64576;50.460;4.866;2023-05-29T14:35:25;11.35;;;4.00;;
75898;SDS011;64576;50.460;4.866;2023-05-29T14:37:51;9.23;;;3.13;;
75898;SDS011;64576;50.460;4.866;2023-05-29T14:40:17;11.00;;;3.55;;
75898;SDS011;64576;50.460;4.866;2023-05-29T14:42:42;8.25;;;3.20;;
75898;SDS011;64576;50.460;4.866;2023-05-29T14:45:07;8.65;;;3.70;;
75898;SDS011;64576;50.460;4.866;2023-05-29T14:47:33;9.75;;;4.10;;
75898;SDS011;64576;50.460;4.866;2023-05-29T14:50:00;9.00;;;3.28;;
75898;SDS011;64576;50.460;4.866;2023-05-29T14:52:25;6.70;;;2.80;;
75898;SDS011;64576;50.460;4.866;2023-05-29T14:54:50;10.85;;;3.92;;
75898;SDS011;64576;50.460;4.866;2023-05-29T14:57:16;17.33;;;3.72;;
75898;SDS011;64576;50.460;4.866;2023-05-29T14:59:41;7.43;;;3.17;;
75898;SDS011;64576;50.460;4.866;2023-05-29T15:02:06;9.68;;;3.33;;
75898;SDS011;64576;50.460;4.866;2023-05-29T15:04:32;11.18;;;3.38;;
75898;SDS011;64576;50.460;4.866;2023-05-29T15:06:57;10.77;;;4.03;;